83WI weather

Jones Airport
Dorchester, Wisconsin, United States

Public forecast

Using degrees Fahrenheit for public forecast. Weather courtesy of forecast.io.

METAR (pilot weather report)

Closest report is Taylor County Airport, 8.0 nm (14.9 km) NNE. Retrieved 2019/09/22 21:35 UTC (10 minutes ago):

KMDZ 222135Z AUTO 31008KT 10SM BKN031 BKN042 20/14 A2979 RMK AO2 T01970136

TAF (pilot weather forecast)

Closest forecast is Wausau Downtown Airport, 30.7 nm (56.8 km) E. Retrieved 2019/09/22 18:36 UTC (3 hours ago):

TAF KAUW 221734Z 2218/2318 28005KT P6SM VCSH SCT022 BKN060 OVC100 FM230200 32007KT P6SM -SHRA BKN040 OVC060 FM230500 31006KT P6SM SCT012 BKN022 FM230800 29007KT P6SM SCT015 BKN100 FM231600 29010G16KT P6SM SCT040 BKN150